createdAt,value
2022-12-03T00:02:51.293Z,0.16
2022-12-03T00:07:52.328Z,0.12
2022-12-03T00:12:54.524Z,0.14
2022-12-03T00:17:55.315Z,0.14
2022-12-03T00:22:56.138Z,0.04
2022-12-03T00:27:58.289Z,0.09
2022-12-03T00:32:59.094Z,0.01
2022-12-03T00:37:59.973Z,-0.01
2022-12-03T00:43:02.128Z,0.05
2022-12-03T00:48:03.089Z,0.08
2022-12-03T00:53:03.957Z,0.03
2022-12-03T00:58:08.343Z,0.04
2022-12-03T01:03:09.146Z,0.06
2022-12-03T01:08:10.088Z,0.06
2022-12-03T01:13:12.379Z,0.07
2022-12-03T01:18:13.163Z,0.02
2022-12-03T01:23:14.008Z,0.04
2022-12-03T01:28:16.246Z,0.08
2022-12-03T01:33:17.080Z,0.02
2022-12-03T01:38:17.900Z,0.07
2022-12-03T01:43:20.189Z,0.05
2022-12-03T01:48:21.037Z,0.09
2022-12-03T01:53:21.888Z,0.03
2022-12-03T01:58:29.838Z,0.08
2022-12-03T02:03:30.738Z,0.07
2022-12-03T02:08:33.705Z,0.09
2022-12-03T02:13:37.147Z,0.04
2022-12-03T02:18:38.106Z,-0.07
2022-12-03T02:23:47.605Z,0.07
2022-12-03T02:28:49.930Z,0.07
2022-12-03T02:33:50.936Z,0.01
2022-12-03T02:38:52.503Z,0.09
2022-12-03T02:43:54.683Z,-0.05
2022-12-03T02:48:55.621Z,0.02
2022-12-03T02:53:57.781Z,0.03
2022-12-03T02:59:04.298Z,0.09
2022-12-03T03:04:06.856Z,-0.07
2022-12-03T03:09:07.826Z,-0.01
2022-12-03T03:14:10.059Z,-0.02
2022-12-03T03:19:10.870Z,0.03
2022-12-03T03:24:11.688Z,0.03
2022-12-03T03:29:14.023Z,0.06
2022-12-03T03:34:15.920Z,0.08
2022-12-03T03:39:16.985Z,0.05
2022-12-03T03:44:19.192Z,0.01
2022-12-03T03:49:20.019Z,0.02
2022-12-03T03:54:21.088Z,-0.01
2022-12-03T03:59:23.292Z,0.01
2022-12-03T04:04:26.705Z,0.07
2022-12-03T04:09:27.907Z,0.06
2022-12-03T04:14:30.057Z,0.06
2022-12-03T04:19:30.850Z,0.15
2022-12-03T04:24:31.942Z,0.13
2022-12-03T04:29:34.165Z,0.16
2022-12-03T04:34:52.943Z,0.13
2022-12-03T04:39:53.968Z,0.05
2022-12-03T04:44:58.372Z,0.05
2022-12-03T04:49:59.127Z,0.10
2022-12-03T04:54:59.916Z,0.07
2022-12-03T05:00:02.071Z,0.11
2022-12-03T05:05:02.940Z,0.11
2022-12-03T05:10:03.919Z,0.11
2022-12-03T05:15:07.431Z,0.12
2022-12-03T05:20:28.280Z,0.10
2022-12-03T05:25:29.116Z,0.07
2022-12-03T05:30:31.495Z,0.02
2022-12-03T05:35:33.169Z,0.09
2022-12-03T05:40:34.020Z,0.15
2022-12-03T05:45:38.508Z,0.19
2022-12-03T05:50:41.526Z,0.13
2022-12-03T05:55:48.176Z,0.14
2022-12-03T06:00:50.337Z,0.19
2022-12-03T06:05:51.114Z,0.06
2022-12-03T06:10:52.258Z,0.15
2022-12-03T06:15:54.464Z,0.25
2022-12-03T06:20:55.263Z,0.19
2022-12-03T06:25:56.023Z,0.21
2022-12-03T06:30:58.216Z,0.22
2022-12-03T06:35:59.123Z,0.14
2022-12-03T06:40:59.899Z,0.18
2022-12-03T06:46:02.093Z,0.05
2022-12-03T06:51:08.130Z,0.13
2022-12-03T06:56:09.953Z,0.19
2022-12-03T07:01:12.162Z,0.15
2022-12-03T07:06:13.124Z,0.21
2022-12-03T07:11:27.927Z,0.25
2022-12-03T07:16:30.486Z,0.26
2022-12-03T07:21:31.501Z,0.26
2022-12-03T07:26:32.832Z,0.39
2022-12-03T07:31:35.060Z,0.42
2022-12-03T07:36:36.015Z,0.38
2022-12-03T07:41:36.817Z,0.44
2022-12-03T07:46:39.004Z,0.53
2022-12-03T07:51:39.887Z,0.49
2022-12-03T07:56:40.916Z,0.44
2022-12-03T08:01:43.184Z,0.81
2022-12-03T08:06:44.067Z,1.22
2022-12-03T08:11:46.404Z,1.10
2022-12-03T08:16:49.309Z,0.93
2022-12-03T08:21:50.180Z,0.90
2022-12-03T08:26:51.030Z,0.81
2022-12-03T08:31:55.226Z,0.94
2022-12-03T08:36:59.889Z,0.90
2022-12-03T08:42:27.959Z,0.91
2022-12-03T08:47:32.379Z,1.01
2022-12-03T08:52:35.173Z,1.26
2022-12-03T08:57:36.144Z,1.20
2022-12-03T09:02:38.343Z,1.18
2022-12-03T09:07:39.211Z,1.10
2022-12-03T09:12:40.071Z,1.10
2022-12-03T09:17:42.426Z,1.11
2022-12-03T09:22:43.270Z,1.15
2022-12-03T09:27:44.114Z,1.25
2022-12-03T09:32:46.282Z,1.23
2022-12-03T09:37:47.111Z,1.28
2022-12-03T09:42:48.486Z,1.27
2022-12-03T09:47:52.309Z,1.33
2022-12-03T09:52:58.176Z,1.33
2022-12-03T09:58:01.026Z,1.34
2022-12-03T10:03:07.192Z,1.39
2022-12-03T10:08:11.233Z,1.46
2022-12-03T10:13:14.431Z,1.39
2022-12-03T10:18:20.276Z,1.50
2022-12-03T10:23:22.906Z,1.55
2022-12-03T10:28:34.538Z,1.49
2022-12-03T10:33:38.640Z,1.46
2022-12-03T10:38:39.468Z,1.46
2022-12-03T10:43:40.258Z,1.40
2022-12-03T10:48:42.408Z,1.43
2022-12-03T10:53:43.308Z,1.59
2022-12-03T10:58:44.144Z,1.53
2022-12-03T11:03:46.858Z,1.58
2022-12-03T11:08:56.561Z,1.67
2022-12-03T11:14:00.135Z,1.67
2022-12-03T11:19:03.778Z,1.70
2022-12-03T11:24:18.498Z,2.03
2022-12-03T11:30:03.215Z,2.31
2022-12-03T11:35:05.490Z,2.19
2022-12-03T11:40:33.521Z,2.25
2022-12-03T11:45:39.359Z,2.70
2022-12-03T11:50:43.476Z,2.88
2022-12-03T11:55:47.261Z,2.77
2022-12-03T12:00:53.540Z,2.60
2022-12-03T12:06:07.147Z,2.57
2022-12-03T12:11:18.344Z,2.56
2022-12-03T12:16:51.328Z,2.44
2022-12-03T12:21:53.675Z,2.55
2022-12-03T12:26:54.477Z,2.47
2022-12-03T12:32:00.829Z,2.50
2022-12-03T12:37:04.099Z,2.42
2022-12-03T12:42:28.504Z,2.45
2022-12-03T12:47:32.420Z,2.40
2022-12-03T12:52:34.641Z,2.57
2022-12-03T12:57:35.490Z,2.55
2022-12-03T13:02:42.568Z,2.60
2022-12-03T13:07:45.981Z,2.67
2022-12-03T13:12:46.882Z,2.67
2022-12-03T13:17:47.762Z,2.64
2022-12-03T13:22:50.001Z,2.69
2022-12-03T13:27:51.802Z,2.68
2022-12-03T13:32:52.642Z,2.66
2022-12-03T13:37:54.879Z,2.62
2022-12-03T13:42:55.741Z,2.68
2022-12-03T13:47:59.646Z,2.69
2022-12-03T13:53:03.389Z,2.73
2022-12-03T13:58:04.180Z,2.72
2022-12-03T14:03:05.467Z,2.71
2022-12-03T14:08:07.738Z,2.71
2022-12-03T14:13:08.584Z,2.76
2022-12-03T14:18:09.372Z,2.73
2022-12-03T14:23:11.520Z,2.69
2022-12-03T14:28:12.432Z,2.66
2022-12-03T14:33:13.291Z,2.63
2022-12-03T14:38:15.445Z,2.66
2022-12-03T14:43:16.210Z,2.61
2022-12-03T14:48:17.047Z,2.50
2022-12-03T14:53:24.103Z,2.39
2022-12-03T14:58:28.269Z,2.26
2022-12-03T15:03:29.154Z,2.16
2022-12-03T15:08:31.419Z,2.11
2022-12-03T15:13:32.323Z,2.11
2022-12-03T15:18:34.568Z,2.12
2022-12-03T15:23:36.866Z,2.01
2022-12-03T15:28:52.760Z,2.04
2022-12-03T15:33:59.069Z,2.00
2022-12-03T15:39:01.874Z,1.99
2022-12-03T15:44:03.218Z,2.05
2022-12-03T15:49:03.995Z,1.83
2022-12-03T15:54:06.504Z,1.90
2022-12-03T15:59:07.329Z,1.83
2022-12-03T16:04:08.119Z,1.92
2022-12-03T16:09:10.445Z,1.83
2022-12-03T16:14:11.224Z,1.86
2022-12-03T16:19:12.055Z,2.02
2022-12-03T16:24:14.230Z,2.03
2022-12-03T16:29:15.466Z,2.16
2022-12-03T16:34:16.249Z,2.03
2022-12-03T16:39:18.576Z,1.97
2022-12-03T16:44:32.229Z,1.99
2022-12-03T16:49:32.996Z,1.96
2022-12-03T16:54:35.152Z,1.89
2022-12-03T16:59:35.959Z,1.96
2022-12-03T17:04:37.154Z,2.04
2022-12-03T17:09:39.746Z,1.99
2022-12-03T17:14:40.665Z,2.03
2022-12-03T17:19:41.464Z,1.95
2022-12-03T17:24:43.625Z,1.97
2022-12-03T17:29:44.504Z,2.14
2022-12-03T17:34:45.440Z,2.11
2022-12-03T17:39:47.593Z,2.01
2022-12-03T17:44:48.431Z,1.96
2022-12-03T17:49:49.323Z,2.03
2022-12-03T18:00:13.382Z,2.02
2022-12-03T18:05:15.852Z,2.17
2022-12-03T18:10:18.378Z,2.11
2022-12-03T18:15:19.180Z,2.15
2022-12-03T18:20:20.206Z,2.19
2022-12-03T18:25:22.508Z,2.14
2022-12-03T18:30:23.770Z,2.14
2022-12-03T18:35:24.825Z,2.05
2022-12-03T18:40:27.788Z,2.10
2022-12-03T18:45:28.621Z,2.24
2022-12-03T18:50:29.462Z,2.13
2022-12-03T18:55:35.232Z,2.24
2022-12-03T19:00:36.346Z,2.24
2022-12-03T19:05:37.575Z,2.34
2022-12-03T19:10:39.801Z,2.24
2022-12-03T19:15:40.671Z,2.33
2022-12-03T19:20:41.948Z,2.31
2022-12-03T19:25:54.852Z,2.31
2022-12-03T19:31:00.437Z,2.35
2022-12-03T19:36:02.337Z,2.25
2022-12-03T19:41:07.334Z,2.41
2022-12-03T19:46:10.477Z,2.32
2022-12-03T19:51:33.028Z,2.38
2022-12-03T19:56:33.946Z,2.26
2022-12-03T20:01:40.414Z,2.08
2022-12-03T20:06:41.550Z,2.09
2022-12-03T20:11:44.569Z,2.11
2022-12-03T20:16:45.830Z,2.30
2022-12-03T20:21:46.794Z,2.21
2022-12-03T20:26:48.993Z,2.11
2022-12-03T20:31:49.951Z,2.20
2022-12-03T20:36:50.853Z,2.22
2022-12-03T20:41:53.176Z,2.27
2022-12-03T20:46:54.127Z,2.28
2022-12-03T20:51:57.014Z,2.26
2022-12-03T20:57:00.848Z,2.31
2022-12-03T21:02:01.911Z,2.25
2022-12-03T21:07:02.856Z,2.20
2022-12-03T21:12:05.572Z,2.09
2022-12-03T21:17:09.109Z,2.05
2022-12-03T21:22:10.173Z,1.99
2022-12-03T21:27:15.784Z,2.12
2022-12-03T21:32:20.783Z,1.99
2022-12-03T21:37:22.009Z,2.03
2022-12-03T21:42:35.363Z,2.00
2022-12-03T21:47:37.802Z,1.96
2022-12-03T21:52:38.827Z,1.94
2022-12-03T21:57:40.977Z,1.93
2022-12-03T22:02:42.117Z,1.98
2022-12-03T22:07:43.031Z,2.03
2022-12-03T22:12:45.244Z,1.98
2022-12-03T22:17:46.088Z,1.92
2022-12-03T22:22:46.886Z,2.12
2022-12-03T22:27:49.019Z,2.11
2022-12-03T22:32:49.874Z,2.15
2022-12-03T22:37:50.745Z,2.18
2022-12-03T22:42:52.894Z,2.06
2022-12-03T22:47:53.665Z,2.14
2022-12-03T22:52:54.543Z,2.04
2022-12-03T22:57:56.647Z,2.13
2022-12-03T23:02:57.484Z,2.07
2022-12-03T23:07:58.410Z,2.05
2022-12-03T23:13:00.609Z,2.04
2022-12-03T23:18:01.450Z,1.93
2022-12-03T23:23:02.234Z,2.05
2022-12-03T23:28:04.456Z,2.03
2022-12-03T23:33:05.895Z,2.14
2022-12-03T23:38:06.752Z,2.07
2022-12-03T23:43:08.881Z,2.06
2022-12-03T23:48:09.687Z,2.12
2022-12-03T23:53:10.525Z,2.14
2022-12-03T23:58:12.665Z,2.19
